Terminal Aerodrome Forecast
Issued by NWS

Home | Current Version | Previous Version | Text Only | Print | Product List | Glossary On
Versions: 1 2 3 4 5 6 7 8 9 10 11 12 13
000
FTUS45 KLKN 240520
TAFEKO
TAF
KEKO 240520Z 2406/2506 VRB06KT P6SM SCT090
     FM242300 15010KT P6SM VCTS SCT050CB BKN070
     FM250300 24010G20KT P6SM -RA BKN060=

USA.gov is the U.S. government's official web portal to all federal, state and local government web resources and services.